sensor_id;sensor_type;location;lat;lon;timestamp;P1;durP1;ratioP1;P2;durP2;ratioP2
28960;SDS011;16068;42.896;20.868;2022-07-29T00:02:26;11.63;;;4.60;;
28960;SDS011;16068;42.896;20.868;2022-07-29T00:05:13;4.82;;;3.72;;
28960;SDS011;16068;42.896;20.868;2022-07-29T00:07:58;10.00;;;4.40;;
28960;SDS011;16068;42.896;20.868;2022-07-29T00:10:45;9.25;;;4.18;;
28960;SDS011;16068;42.896;20.868;2022-07-29T00:13:31;8.05;;;4.40;;
28960;SDS011;16068;42.896;20.868;2022-07-29T00:16:17;11.07;;;3.97;;
28960;SDS011;16068;42.896;20.868;2022-07-29T00:19:03;7.22;;;4.45;;
28960;SDS011;16068;42.896;20.868;2022-07-29T00:21:49;8.50;;;4.18;;
28960;SDS011;16068;42.896;20.868;2022-07-29T00:24:35;10.43;;;3.78;;
28960;SDS011;16068;42.896;20.868;2022-07-29T00:27:21;7.60;;;4.35;;
28960;SDS011;16068;42.896;20.868;2022-07-29T00:30:07;6.07;;;4.20;;
28960;SDS011;16068;42.896;20.868;2022-07-29T00:32:53;6.45;;;3.60;;
28960;SDS011;16068;42.896;20.868;2022-07-29T00:35:39;5.82;;;3.60;;
28960;SDS011;16068;42.896;20.868;2022-07-29T00:38:31;6.65;;;3.70;;
28960;SDS011;16068;42.896;20.868;2022-07-29T00:41:17;10.27;;;4.15;;
28960;SDS011;16068;42.896;20.868;2022-07-29T00:44:03;11.60;;;4.07;;
28960;SDS011;16068;42.896;20.868;2022-07-29T00:46:49;7.22;;;3.50;;
28960;SDS011;16068;42.896;20.868;2022-07-29T00:49:36;14.40;;;5.47;;
28960;SDS011;16068;42.896;20.868;2022-07-29T00:52:24;8.85;;;4.55;;
28960;SDS011;16068;42.896;20.868;2022-07-29T00:55:11;9.75;;;3.90;;
28960;SDS011;16068;42.896;20.868;2022-07-29T00:58:00;6.15;;;3.95;;
28960;SDS011;16068;42.896;20.868;2022-07-29T01:00:45;6.57;;;3.78;;
28960;SDS011;16068;42.896;20.868;2022-07-29T01:03:31;5.03;;;3.40;;
28960;SDS011;16068;42.896;20.868;2022-07-29T01:06:18;5.30;;;3.78;;
28960;SDS011;16068;42.896;20.868;2022-07-29T01:09:04;7.72;;;4.18;;
28960;SDS011;16068;42.896;20.868;2022-07-29T01:11:51;6.43;;;3.70;;
28960;SDS011;16068;42.896;20.868;2022-07-29T01:14:37;5.65;;;3.83;;
28960;SDS011;16068;42.896;20.868;2022-07-29T01:23:45;5.00;;;3.60;;
28960;SDS011;16068;42.896;20.868;2022-07-29T01:32:27;6.97;;;3.60;;
28960;SDS011;16068;42.896;20.868;2022-07-29T01:35:22;6.13;;;4.13;;
28960;SDS011;16068;42.896;20.868;2022-07-29T01:38:19;7.70;;;3.88;;
28960;SDS011;16068;42.896;20.868;2022-07-29T01:41:09;7.75;;;3.72;;
28960;SDS011;16068;42.896;20.868;2022-07-29T01:43:59;11.60;;;3.90;;
28960;SDS011;16068;42.896;20.868;2022-07-29T01:46:52;6.43;;;3.70;;
28960;SDS011;16068;42.896;20.868;2022-07-29T01:49:43;6.93;;;3.50;;
28960;SDS011;16068;42.896;20.868;2022-07-29T01:52:46;11.93;;;4.15;;
28960;SDS011;16068;42.896;20.868;2022-07-29T01:55:43;4.97;;;3.70;;
28960;SDS011;16068;42.896;20.868;2022-07-29T01:58:31;6.38;;;3.67;;
28960;SDS011;16068;42.896;20.868;2022-07-29T02:01:17;7.32;;;3.88;;
28960;SDS011;16068;42.896;20.868;2022-07-29T02:04:03;10.73;;;4.05;;
28960;SDS011;16068;42.896;20.868;2022-07-29T02:06:52;8.82;;;3.92;;
28960;SDS011;16068;42.896;20.868;2022-07-29T02:09:38;5.28;;;3.75;;
28960;SDS011;16068;42.896;20.868;2022-07-29T02:12:26;8.15;;;3.95;;
28960;SDS011;16068;42.896;20.868;2022-07-29T02:15:13;5.90;;;3.80;;
28960;SDS011;16068;42.896;20.868;2022-07-29T02:18:14;8.65;;;3.63;;
28960;SDS011;16068;42.896;20.868;2022-07-29T02:21:01;13.65;;;3.72;;
28960;SDS011;16068;42.896;20.868;2022-07-29T02:23:49;5.97;;;3.72;;
28960;SDS011;16068;42.896;20.868;2022-07-29T02:26:38;7.38;;;3.90;;
28960;SDS011;16068;42.896;20.868;2022-07-29T02:29:26;8.52;;;4.38;;
28960;SDS011;16068;42.896;20.868;2022-07-29T02:32:13;8.65;;;3.90;;
28960;SDS011;16068;42.896;20.868;2022-07-29T02:35:00;6.60;;;3.55;;
28960;SDS011;16068;42.896;20.868;2022-07-29T02:37:47;11.13;;;4.13;;
28960;SDS011;16068;42.896;20.868;2022-07-29T02:40:57;9.35;;;4.22;;
28960;SDS011;16068;42.896;20.868;2022-07-29T02:43:45;7.25;;;4.28;;
28960;SDS011;16068;42.896;20.868;2022-07-29T02:46:34;8.68;;;4.13;;
28960;SDS011;16068;42.896;20.868;2022-07-29T02:49:31;10.23;;;3.70;;
28960;SDS011;16068;42.896;20.868;2022-07-29T02:52:26;7.40;;;3.83;;
28960;SDS011;16068;42.896;20.868;2022-07-29T02:58:13;12.10;;;4.05;;
28960;SDS011;16068;42.896;20.868;2022-07-29T03:01:23;8.98;;;3.72;;
28960;SDS011;16068;42.896;20.868;2022-07-29T03:04:10;10.88;;;3.97;;
28960;SDS011;16068;42.896;20.868;2022-07-29T03:06:58;12.27;;;3.88;;
28960;SDS011;16068;42.896;20.868;2022-07-29T03:09:45;10.38;;;3.85;;
28960;SDS011;16068;42.896;20.868;2022-07-29T03:12:31;9.75;;;3.95;;
28960;SDS011;16068;42.896;20.868;2022-07-29T03:15:17;8.88;;;3.92;;
28960;SDS011;16068;42.896;20.868;2022-07-29T03:18:05;13.98;;;4.22;;
28960;SDS011;16068;42.896;20.868;2022-07-29T03:20:51;17.27;;;5.65;;
28960;SDS011;16068;42.896;20.868;2022-07-29T03:23:37;9.77;;;4.40;;
28960;SDS011;16068;42.896;20.868;2022-07-29T03:26:30;6.87;;;4.60;;
28960;SDS011;16068;42.896;20.868;2022-07-29T03:29:16;8.50;;;4.63;;
28960;SDS011;16068;42.896;20.868;2022-07-29T03:32:05;11.32;;;4.47;;
28960;SDS011;16068;42.896;20.868;2022-07-29T03:34:52;8.25;;;4.60;;
28960;SDS011;16068;42.896;20.868;2022-07-29T03:37:38;10.07;;;5.03;;
28960;SDS011;16068;42.896;20.868;2022-07-29T03:40:27;12.93;;;4.90;;
28960;SDS011;16068;42.896;20.868;2022-07-29T03:43:30;6.97;;;4.95;;
28960;SDS011;16068;42.896;20.868;2022-07-29T03:46:19;10.95;;;5.68;;
28960;SDS011;16068;42.896;20.868;2022-07-29T03:49:06;9.30;;;4.30;;
28960;SDS011;16068;42.896;20.868;2022-07-29T03:51:54;10.73;;;4.75;;
28960;SDS011;16068;42.896;20.868;2022-07-29T03:54:40;6.97;;;4.72;;
28960;SDS011;16068;42.896;20.868;2022-07-29T03:57:27;9.98;;;4.95;;
28960;SDS011;16068;42.896;20.868;2022-07-29T04:00:14;8.80;;;4.85;;
28960;SDS011;16068;42.896;20.868;2022-07-29T04:03:04;6.45;;;4.97;;
28960;SDS011;16068;42.896;20.868;2022-07-29T04:06:03;26.95;;;6.68;;
28960;SDS011;16068;42.896;20.868;2022-07-29T04:08:53;18.52;;;4.47;;
28960;SDS011;16068;42.896;20.868;2022-07-29T04:11:39;13.60;;;4.85;;
28960;SDS011;16068;42.896;20.868;2022-07-29T04:14:47;13.55;;;5.05;;
28960;SDS011;16068;42.896;20.868;2022-07-29T04:17:34;12.77;;;4.50;;
28960;SDS011;16068;42.896;20.868;2022-07-29T04:20:20;10.30;;;4.85;;
28960;SDS011;16068;42.896;20.868;2022-07-29T04:23:07;18.05;;;5.43;;
28960;SDS011;16068;42.896;20.868;2022-07-29T04:25:53;12.30;;;5.25;;
28960;SDS011;16068;42.896;20.868;2022-07-29T04:28:39;15.18;;;5.78;;
28960;SDS011;16068;42.896;20.868;2022-07-29T04:31:25;11.48;;;5.40;;
28960;SDS011;16068;42.896;20.868;2022-07-29T04:34:12;17.35;;;5.53;;
28960;SDS011;16068;42.896;20.868;2022-07-29T04:36:58;9.70;;;4.80;;
28960;SDS011;16068;42.896;20.868;2022-07-29T04:39:44;10.93;;;4.65;;
28960;SDS011;16068;42.896;20.868;2022-07-29T04:42:30;8.77;;;4.90;;
28960;SDS011;16068;42.896;20.868;2022-07-29T04:45:16;14.38;;;5.32;;
28960;SDS011;16068;42.896;20.868;2022-07-29T04:48:07;10.48;;;5.18;;
28960;SDS011;16068;42.896;20.868;2022-07-29T04:50:53;12.93;;;5.38;;
28960;SDS011;16068;42.896;20.868;2022-07-29T04:53:38;15.52;;;5.93;;
28960;SDS011;16068;42.896;20.868;2022-07-29T04:56:24;10.75;;;5.80;;
28960;SDS011;16068;42.896;20.868;2022-07-29T04:59:10;15.98;;;5.97;;
28960;SDS011;16068;42.896;20.868;2022-07-29T05:01:57;13.57;;;5.25;;
28960;SDS011;16068;42.896;20.868;2022-07-29T05:04:44;11.15;;;6.30;;
28960;SDS011;16068;42.896;20.868;2022-07-29T05:07:29;9.73;;;5.63;;
28960;SDS011;16068;42.896;20.868;2022-07-29T05:10:15;6.70;;;5.38;;
28960;SDS011;16068;42.896;20.868;2022-07-29T05:13:01;9.85;;;5.72;;
28960;SDS011;16068;42.896;20.868;2022-07-29T05:15:47;8.15;;;5.22;;
28960;SDS011;16068;42.896;20.868;2022-07-29T05:18:33;13.98;;;6.70;;
28960;SDS011;16068;42.896;20.868;2022-07-29T05:21:18;7.85;;;5.47;;
28960;SDS011;16068;42.896;20.868;2022-07-29T05:24:04;12.52;;;4.97;;
28960;SDS011;16068;42.896;20.868;2022-07-29T05:26:50;9.45;;;5.47;;
28960;SDS011;16068;42.896;20.868;2022-07-29T05:29:37;11.18;;;5.88;;
28960;SDS011;16068;42.896;20.868;2022-07-29T05:32:29;9.13;;;5.78;;
28960;SDS011;16068;42.896;20.868;2022-07-29T05:35:16;14.55;;;5.72;;
28960;SDS011;16068;42.896;20.868;2022-07-29T05:38:02;7.97;;;4.80;;
28960;SDS011;16068;42.896;20.868;2022-07-29T05:40:52;13.52;;;4.90;;
28960;SDS011;16068;42.896;20.868;2022-07-29T05:43:37;19.48;;;4.80;;
28960;SDS011;16068;42.896;20.868;2022-07-29T05:46:23;7.65;;;5.10;;
28960;SDS011;16068;42.896;20.868;2022-07-29T05:49:09;6.35;;;4.60;;
28960;SDS011;16068;42.896;20.868;2022-07-29T05:52:11;9.32;;;5.22;;
28960;SDS011;16068;42.896;20.868;2022-07-29T05:54:58;5.50;;;3.80;;
28960;SDS011;16068;42.896;20.868;2022-07-29T05:57:46;9.00;;;4.35;;
28960;SDS011;16068;42.896;20.868;2022-07-29T06:00:32;6.60;;;4.78;;
28960;SDS011;16068;42.896;20.868;2022-07-29T06:03:18;8.63;;;4.90;;
28960;SDS011;16068;42.896;20.868;2022-07-29T06:06:04;12.05;;;4.88;;
28960;SDS011;16068;42.896;20.868;2022-07-29T06:08:51;11.32;;;4.20;;
28960;SDS011;16068;42.896;20.868;2022-07-29T06:11:37;7.53;;;4.20;;
28960;SDS011;16068;42.896;20.868;2022-07-29T06:14:23;13.55;;;5.15;;
28960;SDS011;16068;42.896;20.868;2022-07-29T06:17:11;5.75;;;5.07;;
28960;SDS011;16068;42.896;20.868;2022-07-29T06:19:57;6.20;;;4.75;;
28960;SDS011;16068;42.896;20.868;2022-07-29T06:22:43;9.77;;;4.90;;
28960;SDS011;16068;42.896;20.868;2022-07-29T06:25:29;12.95;;;5.20;;
28960;SDS011;16068;42.896;20.868;2022-07-29T06:28:15;11.02;;;5.00;;
28960;SDS011;16068;42.896;20.868;2022-07-29T06:31:01;10.70;;;4.88;;
28960;SDS011;16068;42.896;20.868;2022-07-29T06:33:47;14.68;;;4.30;;
28960;SDS011;16068;42.896;20.868;2022-07-29T06:36:36;10.05;;;4.60;;
28960;SDS011;16068;42.896;20.868;2022-07-29T06:39:25;13.43;;;5.03;;
28960;SDS011;16068;42.896;20.868;2022-07-29T06:42:11;17.30;;;5.10;;
28960;SDS011;16068;42.896;20.868;2022-07-29T06:44:58;6.82;;;4.50;;
28960;SDS011;16068;42.896;20.868;2022-07-29T06:47:45;11.63;;;4.80;;
28960;SDS011;16068;42.896;20.868;2022-07-29T06:50:31;12.38;;;5.30;;
28960;SDS011;16068;42.896;20.868;2022-07-29T06:53:17;19.00;;;5.00;;
28960;SDS011;16068;42.896;20.868;2022-07-29T06:56:03;9.65;;;4.85;;
28960;SDS011;16068;42.896;20.868;2022-07-29T06:58:49;8.15;;;5.15;;
28960;SDS011;16068;42.896;20.868;2022-07-29T07:01:36;9.25;;;4.55;;
28960;SDS011;16068;42.896;20.868;2022-07-29T07:04:23;22.80;;;5.43;;
28960;SDS011;16068;42.896;20.868;2022-07-29T07:07:09;14.27;;;5.30;;
28960;SDS011;16068;42.896;20.868;2022-07-29T07:09:55;14.93;;;6.55;;
28960;SDS011;16068;42.896;20.868;2022-07-29T07:12:41;21.27;;;6.50;;
28960;SDS011;16068;42.896;20.868;2022-07-29T07:15:27;14.27;;;5.25;;
28960;SDS011;16068;42.896;20.868;2022-07-29T07:18:24;8.70;;;4.90;;
28960;SDS011;16068;42.896;20.868;2022-07-29T07:21:10;19.75;;;4.72;;
28960;SDS011;16068;42.896;20.868;2022-07-29T07:24:05;17.75;;;4.80;;
28960;SDS011;16068;42.896;20.868;2022-07-29T07:26:51;10.60;;;4.68;;
28960;SDS011;16068;42.896;20.868;2022-07-29T07:29:37;7.15;;;4.32;;
28960;SDS011;16068;42.896;20.868;2022-07-29T07:32:29;33.28;;;8.43;;
28960;SDS011;16068;42.896;20.868;2022-07-29T07:35:15;13.73;;;5.00;;
28960;SDS011;16068;42.896;20.868;2022-07-29T07:38:01;14.93;;;4.45;;
28960;SDS011;16068;42.896;20.868;2022-07-29T07:40:47;17.55;;;5.28;;
28960;SDS011;16068;42.896;20.868;2022-07-29T07:43:33;14.57;;;5.80;;
28960;SDS011;16068;42.896;20.868;2022-07-29T07:46:19;14.55;;;5.72;;
28960;SDS011;16068;42.896;20.868;2022-07-29T07:49:05;31.60;;;7.13;;
28960;SDS011;16068;42.896;20.868;2022-07-29T07:51:51;16.33;;;5.22;;
28960;SDS011;16068;42.896;20.868;2022-07-29T07:54:37;15.73;;;6.10;;
28960;SDS011;16068;42.896;20.868;2022-07-29T07:57:23;9.93;;;5.45;;
28960;SDS011;16068;42.896;20.868;2022-07-29T08:00:09;14.25;;;5.93;;
28960;SDS011;16068;42.896;20.868;2022-07-29T08:02:57;10.90;;;5.13;;
28960;SDS011;16068;42.896;20.868;2022-07-29T08:05:43;15.68;;;5.45;;
28960;SDS011;16068;42.896;20.868;2022-07-29T08:08:29;21.73;;;6.28;;
28960;SDS011;16068;42.896;20.868;2022-07-29T08:11:15;12.38;;;5.57;;
28960;SDS011;16068;42.896;20.868;2022-07-29T08:14:01;14.48;;;5.93;;
28960;SDS011;16068;42.896;20.868;2022-07-29T08:16:47;16.20;;;5.68;;
28960;SDS011;16068;42.896;20.868;2022-07-29T08:19:33;8.25;;;6.15;;
28960;SDS011;16068;42.896;20.868;2022-07-29T08:22:19;13.50;;;6.05;;
28960;SDS011;16068;42.896;20.868;2022-07-29T08:25:05;13.10;;;6.07;;
28960;SDS011;16068;42.896;20.868;2022-07-29T08:27:51;10.55;;;5.43;;
28960;SDS011;16068;42.896;20.868;2022-07-29T08:30:37;9.23;;;5.97;;
28960;SDS011;16068;42.896;20.868;2022-07-29T08:33:23;10.93;;;5.68;;
28960;SDS011;16068;42.896;20.868;2022-07-29T08:36:09;11.70;;;6.18;;
28960;SDS011;16068;42.896;20.868;2022-07-29T08:38:55;14.73;;;6.10;;
28960;SDS011;16068;42.896;20.868;2022-07-29T08:41:41;77.53;;;9.15;;
28960;SDS011;16068;42.896;20.868;2022-07-29T08:44:42;21.52;;;6.95;;
28960;SDS011;16068;42.896;20.868;2022-07-29T08:47:28;16.38;;;6.75;;
28960;SDS011;16068;42.896;20.868;2022-07-29T08:50:14;18.33;;;8.02;;
28960;SDS011;16068;42.896;20.868;2022-07-29T08:53:00;15.63;;;7.88;;
28960;SDS011;16068;42.896;20.868;2022-07-29T08:55:47;16.05;;;7.90;;
28960;SDS011;16068;42.896;20.868;2022-07-29T08:58:35;13.35;;;6.82;;
28960;SDS011;16068;42.896;20.868;2022-07-29T09:01:25;12.57;;;7.18;;
28960;SDS011;16068;42.896;20.868;2022-07-29T09:04:29;21.02;;;7.72;;
28960;SDS011;16068;42.896;20.868;2022-07-29T09:07:17;21.90;;;9.48;;
28960;SDS011;16068;42.896;20.868;2022-07-29T09:10:05;15.60;;;6.32;;
28960;SDS011;16068;42.896;20.868;2022-07-29T09:12:51;24.13;;;6.90;;
28960;SDS011;16068;42.896;20.868;2022-07-29T09:15:37;12.25;;;6.70;;
28960;SDS011;16068;42.896;20.868;2022-07-29T09:21:36;9.82;;;5.63;;
28960;SDS011;16068;42.896;20.868;2022-07-29T09:24:46;12.27;;;5.43;;
28960;SDS011;16068;42.896;20.868;2022-07-29T09:27:33;7.70;;;5.82;;
28960;SDS011;16068;42.896;20.868;2022-07-29T09:30:19;17.52;;;6.07;;
28960;SDS011;16068;42.896;20.868;2022-07-29T09:33:18;12.30;;;6.38;;
28960;SDS011;16068;42.896;20.868;2022-07-29T09:36:11;10.30;;;6.18;;
28960;SDS011;16068;42.896;20.868;2022-07-29T09:39:00;13.77;;;8.25;;
28960;SDS011;16068;42.896;20.868;2022-07-29T09:44:47;13.35;;;7.30;;
28960;SDS011;16068;42.896;20.868;2022-07-29T09:47:43;14.32;;;8.48;;
28960;SDS011;16068;42.896;20.868;2022-07-29T09:50:39;13.00;;;10.38;;
28960;SDS011;16068;42.896;20.868;2022-07-29T09:56:37;14.75;;;8.98;;
28960;SDS011;16068;42.896;20.868;2022-07-29T09:59:25;11.05;;;7.60;;
28960;SDS011;16068;42.896;20.868;2022-07-29T10:02:16;10.68;;;6.40;;
28960;SDS011;16068;42.896;20.868;2022-07-29T10:08:25;12.73;;;7.40;;
28960;SDS011;16068;42.896;20.868;2022-07-29T10:11:12;15.77;;;6.95;;
28960;SDS011;16068;42.896;20.868;2022-07-29T10:14:01;11.00;;;6.57;;
28960;SDS011;16068;42.896;20.868;2022-07-29T10:16:48;13.02;;;7.00;;
28960;SDS011;16068;42.896;20.868;2022-07-29T10:19:35;8.68;;;6.28;;
28960;SDS011;16068;42.896;20.868;2022-07-29T10:22:22;13.90;;;7.30;;
28960;SDS011;16068;42.896;20.868;2022-07-29T10:25:30;11.75;;;6.70;;
28960;SDS011;16068;42.896;20.868;2022-07-29T10:28:21;8.63;;;6.47;;
28960;SDS011;16068;42.896;20.868;2022-07-29T10:31:28;10.88;;;6.38;;
28960;SDS011;16068;42.896;20.868;2022-07-29T10:44:15;15.27;;;8.23;;
28960;SDS011;16068;42.896;20.868;2022-07-29T10:47:18;16.13;;;9.50;;
28960;SDS011;16068;42.896;20.868;2022-07-29T10:50:12;21.73;;;8.38;;
28960;SDS011;16068;42.896;20.868;2022-07-29T10:53:02;15.60;;;8.88;;
28960;SDS011;16068;42.896;20.868;2022-07-29T10:55:53;19.45;;;9.20;;
28960;SDS011;16068;42.896;20.868;2022-07-29T10:58:42;12.20;;;9.00;;
28960;SDS011;16068;42.896;20.868;2022-07-29T11:01:38;13.68;;;9.75;;
28960;SDS011;16068;42.896;20.868;2022-07-29T11:07:29;13.07;;;7.80;;
28960;SDS011;16068;42.896;20.868;2022-07-29T11:10:31;9.75;;;7.15;;
28960;SDS011;16068;42.896;20.868;2022-07-29T11:19:51;16.23;;;7.15;;
28960;SDS011;16068;42.896;20.868;2022-07-29T11:23:20;13.43;;;7.20;;
28960;SDS011;16068;42.896;20.868;2022-07-29T11:26:27;13.65;;;7.72;;
28960;SDS011;16068;42.896;20.868;2022-07-29T11:29:20;17.80;;;7.88;;
28960;SDS011;16068;42.896;20.868;2022-07-29T11:32:12;13.75;;;7.45;;
28960;SDS011;16068;42.896;20.868;2022-07-29T11:35:15;11.52;;;7.03;;
28960;SDS011;16068;42.896;20.868;2022-07-29T11:38:27;15.23;;;7.78;;
28960;SDS011;16068;42.896;20.868;2022-07-29T11:41:26;11.18;;;6.93;;
28960;SDS011;16068;42.896;20.868;2022-07-29T11:44:13;13.75;;;6.82;;
28960;SDS011;16068;42.896;20.868;2022-07-29T11:47:02;19.10;;;8.93;;
28960;SDS011;16068;42.896;20.868;2022-07-29T11:49:51;13.75;;;8.05;;
28960;SDS011;16068;42.896;20.868;2022-07-29T11:52:39;11.13;;;7.30;;
28960;SDS011;16068;42.896;20.868;2022-07-29T11:55:35;12.45;;;7.07;;
28960;SDS011;16068;42.896;20.868;2022-07-29T11:58:36;11.07;;;7.00;;
28960;SDS011;16068;42.896;20.868;2022-07-29T12:01:22;16.67;;;7.45;;
28960;SDS011;16068;42.896;20.868;2022-07-29T12:04:12;13.13;;;6.93;;
28960;SDS011;16068;42.896;20.868;2022-07-29T12:06:58;12.98;;;6.97;;
28960;SDS011;16068;42.896;20.868;2022-07-29T12:09:51;10.20;;;7.05;;
28960;SDS011;16068;42.896;20.868;2022-07-29T12:12:41;13.80;;;7.05;;
28960;SDS011;16068;42.896;20.868;2022-07-29T12:15:27;9.05;;;6.35;;
28960;SDS011;16068;42.896;20.868;2022-07-29T12:18:31;9.80;;;6.93;;
28960;SDS011;16068;42.896;20.868;2022-07-29T12:21:17;8.95;;;6.47;;
28960;SDS011;16068;42.896;20.868;2022-07-29T12:24:10;10.30;;;6.50;;
28960;SDS011;16068;42.896;20.868;2022-07-29T12:26:56;11.40;;;6.53;;
28960;SDS011;16068;42.896;20.868;2022-07-29T12:29:43;15.20;;;6.07;;
28960;SDS011;16068;42.896;20.868;2022-07-29T12:32:37;10.95;;;6.40;;
28960;SDS011;16068;42.896;20.868;2022-07-29T12:35:24;12.10;;;5.95;;
28960;SDS011;16068;42.896;20.868;2022-07-29T12:38:11;9.38;;;6.18;;
28960;SDS011;16068;42.896;20.868;2022-07-29T12:40:57;16.15;;;6.13;;
28960;SDS011;16068;42.896;20.868;2022-07-29T12:43:53;19.70;;;6.57;;
28960;SDS011;16068;42.896;20.868;2022-07-29T12:46:39;11.70;;;6.40;;
28960;SDS011;16068;42.896;20.868;2022-07-29T12:49:26;17.02;;;6.60;;
28960;SDS011;16068;42.896;20.868;2022-07-29T12:58:37;18.88;;;6.40;;
28960;SDS011;16068;42.896;20.868;2022-07-29T13:01:24;12.07;;;6.13;;
28960;SDS011;16068;42.896;20.868;2022-07-29T13:04:23;15.90;;;6.65;;
28960;SDS011;16068;42.896;20.868;2022-07-29T13:07:13;11.27;;;6.60;;
28960;SDS011;16068;42.896;20.868;2022-07-29T13:16:07;15.30;;;7.28;;
28960;SDS011;16068;42.896;20.868;2022-07-29T13:19:03;18.02;;;6.85;;
28960;SDS011;16068;42.896;20.868;2022-07-29T13:21:50;14.48;;;6.07;;
28960;SDS011;16068;42.896;20.868;2022-07-29T13:24:45;12.65;;;6.05;;
28960;SDS011;16068;42.896;20.868;2022-07-29T13:27:33;12.90;;;6.22;;
28960;SDS011;16068;42.896;20.868;2022-07-29T13:30:21;13.10;;;5.70;;
28960;SDS011;16068;42.896;20.868;2022-07-29T13:33:08;23.15;;;6.72;;
28960;SDS011;16068;42.896;20.868;2022-07-29T13:35:54;12.98;;;7.03;;
28960;SDS011;16068;42.896;20.868;2022-07-29T13:38:40;17.73;;;6.25;;
28960;SDS011;16068;42.896;20.868;2022-07-29T13:41:26;11.18;;;6.15;;
28960;SDS011;16068;42.896;20.868;2022-07-29T13:44:12;13.68;;;6.75;;
28960;SDS011;16068;42.896;20.868;2022-07-29T13:46:59;16.67;;;6.32;;
28960;SDS011;16068;42.896;20.868;2022-07-29T13:49:46;16.50;;;6.30;;
28960;SDS011;16068;42.896;20.868;2022-07-29T13:52:32;15.35;;;6.22;;
28960;SDS011;16068;42.896;20.868;2022-07-29T13:55:19;22.45;;;6.68;;
28960;SDS011;16068;42.896;20.868;2022-07-29T13:58:05;14.70;;;5.88;;
28960;SDS011;16068;42.896;20.868;2022-07-29T14:00:51;18.92;;;6.50;;
28960;SDS011;16068;42.896;20.868;2022-07-29T14:03:37;11.23;;;6.03;;
28960;SDS011;16068;42.896;20.868;2022-07-29T14:06:34;14.70;;;5.68;;
28960;SDS011;16068;42.896;20.868;2022-07-29T14:09:25;10.23;;;5.60;;
28960;SDS011;16068;42.896;20.868;2022-07-29T14:12:11;13.00;;;5.68;;
28960;SDS011;16068;42.896;20.868;2022-07-29T14:14:57;12.25;;;5.88;;
28960;SDS011;16068;42.896;20.868;2022-07-29T14:17:43;9.27;;;5.30;;
28960;SDS011;16068;42.896;20.868;2022-07-29T14:20:29;9.02;;;5.05;;
28960;SDS011;16068;42.896;20.868;2022-07-29T14:23:16;9.27;;;4.00;;
28960;SDS011;16068;42.896;20.868;2022-07-29T14:26:04;12.00;;;5.43;;
28960;SDS011;16068;42.896;20.868;2022-07-29T14:28:57;12.30;;;5.30;;
28960;SDS011;16068;42.896;20.868;2022-07-29T14:31:43;9.43;;;4.47;;
28960;SDS011;16068;42.896;20.868;2022-07-29T14:34:29;12.35;;;5.25;;
28960;SDS011;16068;42.896;20.868;2022-07-29T14:37:15;14.23;;;5.63;;
28960;SDS011;16068;42.896;20.868;2022-07-29T14:40:02;9.40;;;5.00;;
28960;SDS011;16068;42.896;20.868;2022-07-29T14:42:49;14.18;;;5.07;;
28960;SDS011;16068;42.896;20.868;2022-07-29T14:45:35;21.33;;;5.38;;
28960;SDS011;16068;42.896;20.868;2022-07-29T14:48:21;15.45;;;5.30;;
28960;SDS011;16068;42.896;20.868;2022-07-29T14:51:07;10.13;;;4.45;;
28960;SDS011;16068;42.896;20.868;2022-07-29T14:53:53;10.10;;;4.90;;
28960;SDS011;16068;42.896;20.868;2022-07-29T14:56:39;10.10;;;4.70;;
28960;SDS011;16068;42.896;20.868;2022-07-29T14:59:32;9.50;;;4.90;;
28960;SDS011;16068;42.896;20.868;2022-07-29T15:02:18;12.18;;;5.05;;
28960;SDS011;16068;42.896;20.868;2022-07-29T15:05:05;10.52;;;4.72;;
28960;SDS011;16068;42.896;20.868;2022-07-29T15:07:51;10.95;;;4.88;;
28960;SDS011;16068;42.896;20.868;2022-07-29T15:10:37;8.88;;;4.70;;
28960;SDS011;16068;42.896;20.868;2022-07-29T15:13:24;8.60;;;4.40;;
28960;SDS011;16068;42.896;20.868;2022-07-29T15:16:10;8.52;;;4.47;;
28960;SDS011;16068;42.896;20.868;2022-07-29T15:18:57;9.60;;;4.57;;
28960;SDS011;16068;42.896;20.868;2022-07-29T15:21:45;12.45;;;4.70;;
28960;SDS011;16068;42.896;20.868;2022-07-29T15:24:44;9.90;;;4.78;;
28960;SDS011;16068;42.896;20.868;2022-07-29T15:27:30;9.73;;;4.60;;
28960;SDS011;16068;42.896;20.868;2022-07-29T15:30:17;7.88;;;4.70;;
28960;SDS011;16068;42.896;20.868;2022-07-29T15:33:19;11.60;;;4.85;;
28960;SDS011;16068;42.896;20.868;2022-07-29T15:36:05;7.22;;;4.45;;
28960;SDS011;16068;42.896;20.868;2022-07-29T15:38:54;9.50;;;4.55;;
28960;SDS011;16068;42.896;20.868;2022-07-29T15:41:40;11.23;;;4.32;;
28960;SDS011;16068;42.896;20.868;2022-07-29T15:44:26;9.57;;;4.28;;
28960;SDS011;16068;42.896;20.868;2022-07-29T15:47:12;19.70;;;4.63;;
28960;SDS011;16068;42.896;20.868;2022-07-29T15:50:00;8.88;;;4.60;;
28960;SDS011;16068;42.896;20.868;2022-07-29T15:52:46;6.65;;;4.22;;
28960;SDS011;16068;42.896;20.868;2022-07-29T15:55:32;11.27;;;4.75;;
28960;SDS011;16068;42.896;20.868;2022-07-29T15:58:19;8.63;;;4.97;;
28960;SDS011;16068;42.896;20.868;2022-07-29T16:01:05;9.55;;;4.68;;
28960;SDS011;16068;42.896;20.868;2022-07-29T16:03:52;10.75;;;4.70;;
28960;SDS011;16068;42.896;20.868;2022-07-29T16:06:38;17.65;;;5.20;;
28960;SDS011;16068;42.896;20.868;2022-07-29T16:09:24;8.35;;;4.68;;
28960;SDS011;16068;42.896;20.868;2022-07-29T16:12:11;12.27;;;4.93;;
28960;SDS011;16068;42.896;20.868;2022-07-29T16:14:59;14.50;;;4.95;;
28960;SDS011;16068;42.896;20.868;2022-07-29T16:17:51;16.92;;;4.88;;
28960;SDS011;16068;42.896;20.868;2022-07-29T16:20:37;10.52;;;4.30;;
28960;SDS011;16068;42.896;20.868;2022-07-29T16:23:23;10.38;;;4.35;;
28960;SDS011;16068;42.896;20.868;2022-07-29T16:26:09;7.30;;;4.15;;
28960;SDS011;16068;42.896;20.868;2022-07-29T16:28:56;15.35;;;4.88;;
28960;SDS011;16068;42.896;20.868;2022-07-29T16:31:42;11.02;;;4.53;;
28960;SDS011;16068;42.896;20.868;2022-07-29T16:34:29;9.48;;;4.75;;
28960;SDS011;16068;42.896;20.868;2022-07-29T16:37:14;13.38;;;5.22;;
28960;SDS011;16068;42.896;20.868;2022-07-29T16:40:02;14.80;;;5.15;;
28960;SDS011;16068;42.896;20.868;2022-07-29T16:42:48;15.25;;;4.50;;
28960;SDS011;16068;42.896;20.868;2022-07-29T16:45:34;12.73;;;4.60;;
28960;SDS011;16068;42.896;20.868;2022-07-29T16:48:32;7.88;;;4.38;;
28960;SDS011;16068;42.896;20.868;2022-07-29T16:51:20;12.93;;;5.15;;
28960;SDS011;16068;42.896;20.868;2022-07-29T16:54:06;8.85;;;4.70;;
28960;SDS011;16068;42.896;20.868;2022-07-29T16:56:55;12.15;;;4.97;;
28960;SDS011;16068;42.896;20.868;2022-07-29T16:59:41;8.13;;;4.53;;
28960;SDS011;16068;42.896;20.868;2022-07-29T17:02:28;10.50;;;4.75;;
28960;SDS011;16068;42.896;20.868;2022-07-29T17:05:14;12.15;;;4.75;;
28960;SDS011;16068;42.896;20.868;2022-07-29T17:08:01;6.05;;;4.13;;
28960;SDS011;16068;42.896;20.868;2022-07-29T17:10:47;14.13;;;4.80;;
28960;SDS011;16068;42.896;20.868;2022-07-29T17:13:33;19.30;;;5.50;;
28960;SDS011;16068;42.896;20.868;2022-07-29T17:16:19;15.38;;;5.85;;
28960;SDS011;16068;42.896;20.868;2022-07-29T17:19:09;12.35;;;5.65;;
28960;SDS011;16068;42.896;20.868;2022-07-29T17:21:55;11.70;;;4.65;;
28960;SDS011;16068;42.896;20.868;2022-07-29T17:24:54;8.70;;;5.20;;
28960;SDS011;16068;42.896;20.868;2022-07-29T17:27:41;9.93;;;4.72;;
28960;SDS011;16068;42.896;20.868;2022-07-29T17:30:28;9.70;;;4.60;;
28960;SDS011;16068;42.896;20.868;2022-07-29T17:33:14;10.13;;;4.55;;